sensor_id;sensor_type;location;lat;lon;timestamp;temperature;humidity
53748;DHT22;39655;53.210;5.768;2023-03-31T00:01:30;9.60;94.30
53748;DHT22;39655;53.210;5.768;2023-03-31T00:03:58;9.60;94.40
53748;DHT22;39655;53.210;5.768;2023-03-31T00:06:32;9.60;94.30
53748;DHT22;39655;53.210;5.768;2023-03-31T00:09:04;9.60;94.30
53748;DHT22;39655;53.210;5.768;2023-03-31T00:11:30;9.70;94.30
53748;DHT22;39655;53.210;5.768;2023-03-31T00:13:56;9.70;94.30
53748;DHT22;39655;53.210;5.768;2023-03-31T00:16:22;9.70;94.30
53748;DHT22;39655;53.210;5.768;2023-03-31T00:18:48;9.80;94.20
53748;DHT22;39655;53.210;5.768;2023-03-31T00:21:22;9.80;94.20
53748;DHT22;39655;53.210;5.768;2023-03-31T00:23:59;9.80;94.10
53748;DHT22;39655;53.210;5.768;2023-03-31T00:26:25;9.80;94.00
53748;DHT22;39655;53.210;5.768;2023-03-31T00:28:51;9.80;94.00
53748;DHT22;39655;53.210;5.768;2023-03-31T00:31:18;9.80;94.00
53748;DHT22;39655;53.210;5.768;2023-03-31T00:33:44;9.90;93.90
53748;DHT22;39655;53.210;5.768;2023-03-31T00:36:09;9.80;93.80
53748;DHT22;39655;53.210;5.768;2023-03-31T00:38:35;9.90;93.90
53748;DHT22;39655;53.210;5.768;2023-03-31T00:41:02;9.80;93.60
53748;DHT22;39655;53.210;5.768;2023-03-31T00:43:34;9.80;93.70
53748;DHT22;39655;53.210;5.768;2023-03-31T00:46:04;9.70;93.70
53748;DHT22;39655;53.210;5.768;2023-03-31T00:48:32;9.70;93.50
53748;DHT22;39655;53.210;5.768;2023-03-31T00:51:02;9.60;93.60
53748;DHT22;39655;53.210;5.768;2023-03-31T00:53:31;9.50;93.60
53748;DHT22;39655;53.210;5.768;2023-03-31T00:56:03;9.40;93.60
53748;DHT22;39655;53.210;5.768;2023-03-31T00:58:32;9.40;93.70
53748;DHT22;39655;53.210;5.768;2023-03-31T01:01:00;9.30;93.90
53748;DHT22;39655;53.210;5.768;2023-03-31T01:03:29;9.30;93.90
53748;DHT22;39655;53.210;5.768;2023-03-31T01:06:03;9.30;93.80
53748;DHT22;39655;53.210;5.768;2023-03-31T01:08:31;9.30;94.00
53748;DHT22;39655;53.210;5.768;2023-03-31T01:11:03;9.30;93.80
53748;DHT22;39655;53.210;5.768;2023-03-31T01:13:31;9.20;93.80
53748;DHT22;39655;53.210;5.768;2023-03-31T01:15:59;9.20;93.90
53748;DHT22;39655;53.210;5.768;2023-03-31T01:18:28;9.20;93.90
53748;DHT22;39655;53.210;5.768;2023-03-31T01:30:27;8.90;94.00
53748;DHT22;39655;53.210;5.768;2023-03-31T01:36:18;8.80;94.00
53748;DHT22;39655;53.210;5.768;2023-03-31T01:44:42;8.60;94.30
53748;DHT22;39655;53.210;5.768;2023-03-31T01:47:11;8.50;94.40
53748;DHT22;39655;53.210;5.768;2023-03-31T01:49:45;8.50;94.40
53748;DHT22;39655;53.210;5.768;2023-03-31T01:52:38;8.50;94.40
53748;DHT22;39655;53.210;5.768;2023-03-31T01:55:23;8.50;94.50
53748;DHT22;39655;53.210;5.768;2023-03-31T01:58:04;8.60;94.60
53748;DHT22;39655;53.210;5.768;2023-03-31T02:00:35;8.70;94.60
53748;DHT22;39655;53.210;5.768;2023-03-31T02:03:15;8.70;94.60
53748;DHT22;39655;53.210;5.768;2023-03-31T02:06:05;8.90;94.70
53748;DHT22;39655;53.210;5.768;2023-03-31T02:08:54;9.10;94.70
53748;DHT22;39655;53.210;5.768;2023-03-31T02:11:22;9.20;94.60
53748;DHT22;39655;53.210;5.768;2023-03-31T02:13:51;9.40;94.50
53748;DHT22;39655;53.210;5.768;2023-03-31T02:16:21;9.50;94.50
53748;DHT22;39655;53.210;5.768;2023-03-31T02:18:53;9.60;94.40
53748;DHT22;39655;53.210;5.768;2023-03-31T02:21:28;9.60;94.30
53748;DHT22;39655;53.210;5.768;2023-03-31T02:23:54;9.60;94.20
53748;DHT22;39655;53.210;5.768;2023-03-31T02:26:24;9.70;94.10
53748;DHT22;39655;53.210;5.768;2023-03-31T02:28:52;9.70;94.10
53748;DHT22;39655;53.210;5.768;2023-03-31T02:31:45;9.60;94.00
53748;DHT22;39655;53.210;5.768;2023-03-31T02:34:12;9.60;94.00
53748;DHT22;39655;53.210;5.768;2023-03-31T02:36:41;9.60;94.00
53748;DHT22;39655;53.210;5.768;2023-03-31T02:39:27;9.60;94.00
53748;DHT22;39655;53.210;5.768;2023-03-31T02:41:54;9.60;94.00
53748;DHT22;39655;53.210;5.768;2023-03-31T02:44:21;9.60;93.90
53748;DHT22;39655;53.210;5.768;2023-03-31T02:46:48;9.60;93.90
53748;DHT22;39655;53.210;5.768;2023-03-31T02:49:16;9.50;93.90
53748;DHT22;39655;53.210;5.768;2023-03-31T02:57:43;9.40;93.90
53748;DHT22;39655;53.210;5.768;2023-03-31T03:09:08;9.40;94.10
53748;DHT22;39655;53.210;5.768;2023-03-31T03:17:12;9.50;94.10
53748;DHT22;39655;53.210;5.768;2023-03-31T03:19:41;9.60;94.10
53748;DHT22;39655;53.210;5.768;2023-03-31T03:22:07;9.50;94.20
53748;DHT22;39655;53.210;5.768;2023-03-31T03:24:33;9.60;94.10
53748;DHT22;39655;53.210;5.768;2023-03-31T03:26:59;9.60;94.10
53748;DHT22;39655;53.210;5.768;2023-03-31T03:29:26;9.70;94.20
53748;DHT22;39655;53.210;5.768;2023-03-31T03:31:52;9.60;94.10
53748;DHT22;39655;53.210;5.768;2023-03-31T03:34:18;9.70;94.10
53748;DHT22;39655;53.210;5.768;2023-03-31T03:36:45;9.70;94.10
53748;DHT22;39655;53.210;5.768;2023-03-31T03:39:11;9.60;94.10
53748;DHT22;39655;53.210;5.768;2023-03-31T03:41:37;9.60;94.10
53748;DHT22;39655;53.210;5.768;2023-03-31T03:44:03;9.60;94.10
53748;DHT22;39655;53.210;5.768;2023-03-31T03:46:28;9.60;94.10
53748;DHT22;39655;53.210;5.768;2023-03-31T03:48:54;9.60;94.10
53748;DHT22;39655;53.210;5.768;2023-03-31T03:51:20;9.50;94.10
53748;DHT22;39655;53.210;5.768;2023-03-31T03:53:46;9.50;94.10
53748;DHT22;39655;53.210;5.768;2023-03-31T03:56:12;9.50;94.20
53748;DHT22;39655;53.210;5.768;2023-03-31T03:58:37;9.50;94.40
53748;DHT22;39655;53.210;5.768;2023-03-31T04:01:03;9.50;94.50
53748;DHT22;39655;53.210;5.768;2023-03-31T04:03:29;9.40;94.40
53748;DHT22;39655;53.210;5.768;2023-03-31T04:05:55;9.50;94.60
53748;DHT22;39655;53.210;5.768;2023-03-31T04:08:21;9.50;94.70
53748;DHT22;39655;53.210;5.768;2023-03-31T04:10:48;9.50;94.70
53748;DHT22;39655;53.210;5.768;2023-03-31T04:13:15;9.50;94.80
53748;DHT22;39655;53.210;5.768;2023-03-31T04:15:41;9.50;94.80
53748;DHT22;39655;53.210;5.768;2023-03-31T04:18:07;9.50;94.80
53748;DHT22;39655;53.210;5.768;2023-03-31T04:20:36;9.60;94.80
53748;DHT22;39655;53.210;5.768;2023-03-31T04:23:03;9.60;94.80
53748;DHT22;39655;53.210;5.768;2023-03-31T04:25:30;9.60;94.80
53748;DHT22;39655;53.210;5.768;2023-03-31T04:27:56;9.70;94.80
53748;DHT22;39655;53.210;5.768;2023-03-31T04:30:22;9.60;94.80
53748;DHT22;39655;53.210;5.768;2023-03-31T04:32:50;9.60;94.90
53748;DHT22;39655;53.210;5.768;2023-03-31T04:35:18;9.60;94.80
53748;DHT22;39655;53.210;5.768;2023-03-31T04:37:46;9.60;94.80
53748;DHT22;39655;53.210;5.768;2023-03-31T04:40:12;9.70;94.80
53748;DHT22;39655;53.210;5.768;2023-03-31T04:42:38;9.60;94.80
53748;DHT22;39655;53.210;5.768;2023-03-31T04:45:04;9.60;94.80
53748;DHT22;39655;53.210;5.768;2023-03-31T04:47:30;9.60;94.90
53748;DHT22;39655;53.210;5.768;2023-03-31T04:49:55;9.60;94.80
53748;DHT22;39655;53.210;5.768;2023-03-31T04:52:21;9.60;94.90
53748;DHT22;39655;53.210;5.768;2023-03-31T04:54:47;9.70;95.00
53748;DHT22;39655;53.210;5.768;2023-03-31T04:57:13;9.70;95.00
53748;DHT22;39655;53.210;5.768;2023-03-31T04:59:38;9.70;95.00
53748;DHT22;39655;53.210;5.768;2023-03-31T05:02:04;9.60;95.00
53748;DHT22;39655;53.210;5.768;2023-03-31T05:04:29;9.70;94.90
53748;DHT22;39655;53.210;5.768;2023-03-31T05:06:55;9.70;95.00
53748;DHT22;39655;53.210;5.768;2023-03-31T05:09:21;9.70;95.00
53748;DHT22;39655;53.210;5.768;2023-03-31T05:11:47;9.70;95.00
53748;DHT22;39655;53.210;5.768;2023-03-31T05:14:13;9.70;95.00
53748;DHT22;39655;53.210;5.768;2023-03-31T05:16:38;9.70;95.00
53748;DHT22;39655;53.210;5.768;2023-03-31T05:19:06;9.70;94.90
53748;DHT22;39655;53.210;5.768;2023-03-31T05:21:32;9.70;94.90
53748;DHT22;39655;53.210;5.768;2023-03-31T05:23:57;9.70;95.00
53748;DHT22;39655;53.210;5.768;2023-03-31T05:26:23;9.70;95.00
53748;DHT22;39655;53.210;5.768;2023-03-31T05:28:53;9.70;95.00
53748;DHT22;39655;53.210;5.768;2023-03-31T05:31:19;9.70;95.00
53748;DHT22;39655;53.210;5.768;2023-03-31T05:33:45;9.70;94.90
53748;DHT22;39655;53.210;5.768;2023-03-31T05:36:13;9.70;94.90
53748;DHT22;39655;53.210;5.768;2023-03-31T05:38:40;9.70;95.10
53748;DHT22;39655;53.210;5.768;2023-03-31T05:41:06;9.70;95.00
53748;DHT22;39655;53.210;5.768;2023-03-31T05:43:34;9.70;94.90
53748;DHT22;39655;53.210;5.768;2023-03-31T05:46:00;9.70;95.00
53748;DHT22;39655;53.210;5.768;2023-03-31T05:48:29;9.70;95.00
53748;DHT22;39655;53.210;5.768;2023-03-31T05:50:56;9.70;95.00
53748;DHT22;39655;53.210;5.768;2023-03-31T05:53:22;9.70;95.20
53748;DHT22;39655;53.210;5.768;2023-03-31T05:55:59;9.70;95.20
53748;DHT22;39655;53.210;5.768;2023-03-31T05:58:25;9.70;95.20
53748;DHT22;39655;53.210;5.768;2023-03-31T06:01:03;9.70;95.20
53748;DHT22;39655;53.210;5.768;2023-03-31T06:03:31;9.70;95.20
53748;DHT22;39655;53.210;5.768;2023-03-31T06:05:57;9.70;95.20
53748;DHT22;39655;53.210;5.768;2023-03-31T06:08:40;9.80;95.20
53748;DHT22;39655;53.210;5.768;2023-03-31T06:11:08;9.80;95.30
53748;DHT22;39655;53.210;5.768;2023-03-31T06:13:35;9.80;95.20
53748;DHT22;39655;53.210;5.768;2023-03-31T06:16:01;9.80;95.20
53748;DHT22;39655;53.210;5.768;2023-03-31T06:18:28;9.80;95.30
53748;DHT22;39655;53.210;5.768;2023-03-31T06:20:54;9.80;95.20
53748;DHT22;39655;53.210;5.768;2023-03-31T06:23:21;9.90;95.30
53748;DHT22;39655;53.210;5.768;2023-03-31T06:25:47;9.90;95.30
53748;DHT22;39655;53.210;5.768;2023-03-31T06:28:21;9.90;95.30
53748;DHT22;39655;53.210;5.768;2023-03-31T06:30:49;9.90;95.30
53748;DHT22;39655;53.210;5.768;2023-03-31T06:33:15;10.00;95.20
53748;DHT22;39655;53.210;5.768;2023-03-31T06:35:46;10.00;95.30
53748;DHT22;39655;53.210;5.768;2023-03-31T06:38:12;10.10;95.40
53748;DHT22;39655;53.210;5.768;2023-03-31T06:40:38;10.10;95.30
53748;DHT22;39655;53.210;5.768;2023-03-31T06:43:03;10.10;95.30
53748;DHT22;39655;53.210;5.768;2023-03-31T06:45:29;10.10;95.40
53748;DHT22;39655;53.210;5.768;2023-03-31T06:47:55;10.10;95.30
53748;DHT22;39655;53.210;5.768;2023-03-31T06:50:20;10.10;95.30
53748;DHT22;39655;53.210;5.768;2023-03-31T06:52:46;10.20;95.30
53748;DHT22;39655;53.210;5.768;2023-03-31T06:55:12;10.10;95.30
53748;DHT22;39655;53.210;5.768;2023-03-31T06:57:39;10.20;95.20
53748;DHT22;39655;53.210;5.768;2023-03-31T07:00:06;10.10;95.20
53748;DHT22;39655;53.210;5.768;2023-03-31T07:02:32;10.20;95.20
53748;DHT22;39655;53.210;5.768;2023-03-31T07:04:57;10.10;95.10
53748;DHT22;39655;53.210;5.768;2023-03-31T07:07:23;10.10;95.20
53748;DHT22;39655;53.210;5.768;2023-03-31T07:09:54;10.20;95.10
53748;DHT22;39655;53.210;5.768;2023-03-31T07:12:20;10.20;95.10
53748;DHT22;39655;53.210;5.768;2023-03-31T07:14:46;10.20;95.00
53748;DHT22;39655;53.210;5.768;2023-03-31T07:17:11;10.20;95.00
53748;DHT22;39655;53.210;5.768;2023-03-31T07:19:37;10.20;95.00
53748;DHT22;39655;53.210;5.768;2023-03-31T07:22:06;10.20;95.00
53748;DHT22;39655;53.210;5.768;2023-03-31T07:24:32;10.20;94.90
53748;DHT22;39655;53.210;5.768;2023-03-31T07:26:58;10.20;95.00
53748;DHT22;39655;53.210;5.768;2023-03-31T07:29:24;10.20;95.00
53748;DHT22;39655;53.210;5.768;2023-03-31T07:31:49;10.20;95.00
53748;DHT22;39655;53.210;5.768;2023-03-31T07:34:15;10.30;95.00
53748;DHT22;39655;53.210;5.768;2023-03-31T07:36:41;10.30;94.90
53748;DHT22;39655;53.210;5.768;2023-03-31T07:39:07;10.20;94.90
53748;DHT22;39655;53.210;5.768;2023-03-31T07:41:33;10.30;94.90
53748;DHT22;39655;53.210;5.768;2023-03-31T07:43:58;10.20;94.90
53748;DHT22;39655;53.210;5.768;2023-03-31T07:46:26;10.20;94.90
53748;DHT22;39655;53.210;5.768;2023-03-31T07:48:54;10.20;94.90
53748;DHT22;39655;53.210;5.768;2023-03-31T07:51:22;10.20;95.00
53748;DHT22;39655;53.210;5.768;2023-03-31T07:53:48;10.20;95.00
53748;DHT22;39655;53.210;5.768;2023-03-31T07:56:20;10.20;95.00
53748;DHT22;39655;53.210;5.768;2023-03-31T07:58:46;10.20;95.00
53748;DHT22;39655;53.210;5.768;2023-03-31T08:01:14;10.20;95.00
53748;DHT22;39655;53.210;5.768;2023-03-31T08:03:42;10.20;95.00
53748;DHT22;39655;53.210;5.768;2023-03-31T08:06:11;10.20;95.00
53748;DHT22;39655;53.210;5.768;2023-03-31T08:08:41;10.20;95.00
53748;DHT22;39655;53.210;5.768;2023-03-31T08:11:08;10.20;95.00
53748;DHT22;39655;53.210;5.768;2023-03-31T08:13:34;10.20;95.00
53748;DHT22;39655;53.210;5.768;2023-03-31T08:16:02;10.30;95.00
53748;DHT22;39655;53.210;5.768;2023-03-31T08:18:28;10.30;95.10
53748;DHT22;39655;53.210;5.768;2023-03-31T08:20:59;10.40;95.10
53748;DHT22;39655;53.210;5.768;2023-03-31T08:23:27;10.40;95.20
53748;DHT22;39655;53.210;5.768;2023-03-31T08:26:09;10.50;95.20
53748;DHT22;39655;53.210;5.768;2023-03-31T08:28:35;10.50;95.20
53748;DHT22;39655;53.210;5.768;2023-03-31T08:31:04;10.50;95.10
53748;DHT22;39655;53.210;5.768;2023-03-31T08:33:31;10.50;95.00
53748;DHT22;39655;53.210;5.768;2023-03-31T08:36:01;10.60;95.10
53748;DHT22;39655;53.210;5.768;2023-03-31T08:38:26;10.60;95.00
53748;DHT22;39655;53.210;5.768;2023-03-31T08:40:58;10.70;95.10
53748;DHT22;39655;53.210;5.768;2023-03-31T08:43:29;10.80;95.10
53748;DHT22;39655;53.210;5.768;2023-03-31T08:45:56;10.90;95.00
53748;DHT22;39655;53.210;5.768;2023-03-31T08:48:35;10.90;94.90
53748;DHT22;39655;53.210;5.768;2023-03-31T08:51:35;11.00;94.90
53748;DHT22;39655;53.210;5.768;2023-03-31T08:54:04;11.00;94.80
53748;DHT22;39655;53.210;5.768;2023-03-31T08:56:40;11.00;94.70
53748;DHT22;39655;53.210;5.768;2023-03-31T09:02:03;11.00;94.70
53748;DHT22;39655;53.210;5.768;2023-03-31T09:10:46;11.40;94.60
53748;DHT22;39655;53.210;5.768;2023-03-31T09:13:23;11.50;94.30
53748;DHT22;39655;53.210;5.768;2023-03-31T09:16:13;11.60;94.30
53748;DHT22;39655;53.210;5.768;2023-03-31T09:18:40;11.60;93.90
53748;DHT22;39655;53.210;5.768;2023-03-31T09:21:33;11.60;93.80
53748;DHT22;39655;53.210;5.768;2023-03-31T09:24:04;11.70;93.80
53748;DHT22;39655;53.210;5.768;2023-03-31T09:26:39;11.70;93.60
53748;DHT22;39655;53.210;5.768;2023-03-31T09:29:14;11.80;93.50
53748;DHT22;39655;53.210;5.768;2023-03-31T09:31:43;11.70;93.30
53748;DHT22;39655;53.210;5.768;2023-03-31T09:34:29;11.70;93.20
53748;DHT22;39655;53.210;5.768;2023-03-31T09:36:56;11.60;93.20
53748;DHT22;39655;53.210;5.768;2023-03-31T09:39:22;11.60;93.30
53748;DHT22;39655;53.210;5.768;2023-03-31T09:41:49;11.60;93.50
53748;DHT22;39655;53.210;5.768;2023-03-31T09:44:27;11.70;93.50
53748;DHT22;39655;53.210;5.768;2023-03-31T09:46:54;11.70;93.70
53748;DHT22;39655;53.210;5.768;2023-03-31T09:49:24;11.70;93.60
53748;DHT22;39655;53.210;5.768;2023-03-31T09:52:05;11.70;93.60
53748;DHT22;39655;53.210;5.768;2023-03-31T09:54:38;11.70;93.60
53748;DHT22;39655;53.210;5.768;2023-03-31T09:57:33;11.70;93.60
53748;DHT22;39655;53.210;5.768;2023-03-31T10:02:49;11.60;93.70
53748;DHT22;39655;53.210;5.768;2023-03-31T10:05:32;11.50;93.80
53748;DHT22;39655;53.210;5.768;2023-03-31T10:08:18;11.50;93.80
53748;DHT22;39655;53.210;5.768;2023-03-31T10:10:48;11.40;93.80
53748;DHT22;39655;53.210;5.768;2023-03-31T10:13:21;11.40;93.80
53748;DHT22;39655;53.210;5.768;2023-03-31T10:16:05;11.40;94.10
53748;DHT22;39655;53.210;5.768;2023-03-31T10:18:39;11.40;94.00
53748;DHT22;39655;53.210;5.768;2023-03-31T10:21:27;11.50;94.20
53748;DHT22;39655;53.210;5.768;2023-03-31T10:23:53;11.60;94.00
53748;DHT22;39655;53.210;5.768;2023-03-31T10:26:26;11.80;93.90
53748;DHT22;39655;53.210;5.768;2023-03-31T10:28:52;12.00;93.60
53748;DHT22;39655;53.210;5.768;2023-03-31T10:31:24;12.20;93.40
53748;DHT22;39655;53.210;5.768;2023-03-31T10:33:50;12.60;93.10
53748;DHT22;39655;53.210;5.768;2023-03-31T10:36:26;12.70;92.40
53748;DHT22;39655;53.210;5.768;2023-03-31T10:38:53;12.80;91.30
53748;DHT22;39655;53.210;5.768;2023-03-31T10:41:24;13.10;91.40
53748;DHT22;39655;53.210;5.768;2023-03-31T10:43:56;13.10;90.60
53748;DHT22;39655;53.210;5.768;2023-03-31T10:46:46;13.20;89.40
53748;DHT22;39655;53.210;5.768;2023-03-31T10:51:54;13.30;89.00
53748;DHT22;39655;53.210;5.768;2023-03-31T10:54:22;13.20;88.30
53748;DHT22;39655;53.210;5.768;2023-03-31T10:56:54;13.40;89.00
53748;DHT22;39655;53.210;5.768;2023-03-31T11:02:14;13.70;88.70
53748;DHT22;39655;53.210;5.768;2023-03-31T11:13:43;14.10;87.40
53748;DHT22;39655;53.210;5.768;2023-03-31T11:16:28;14.40;85.20
53748;DHT22;39655;53.210;5.768;2023-03-31T11:21:38;14.40;83.90
53748;DHT22;39655;53.210;5.768;2023-03-31T11:30:20;14.20;84.70
53748;DHT22;39655;53.210;5.768;2023-03-31T11:33:04;14.10;84.90
53748;DHT22;39655;53.210;5.768;2023-03-31T11:41:03;13.30;86.00
53748;DHT22;39655;53.210;5.768;2023-03-31T11:54:16;13.00;88.70
53748;DHT22;39655;53.210;5.768;2023-03-31T11:56:42;12.90;88.90
53748;DHT22;39655;53.210;5.768;2023-03-31T11:59:13;12.80;89.20
53748;DHT22;39655;53.210;5.768;2023-03-31T12:02:09;12.90;89.60
53748;DHT22;39655;53.210;5.768;2023-03-31T12:04:43;12.70;89.50
53748;DHT22;39655;53.210;5.768;2023-03-31T12:07:31;12.60;90.10
53748;DHT22;39655;53.210;5.768;2023-03-31T12:12:46;12.90;90.90
53748;DHT22;39655;53.210;5.768;2023-03-31T12:15:22;12.90;90.00
53748;DHT22;39655;53.210;5.768;2023-03-31T12:17:59;12.90;90.50
53748;DHT22;39655;53.210;5.768;2023-03-31T12:21:04;12.90;90.10
53748;DHT22;39655;53.210;5.768;2023-03-31T12:24:39;12.80;90.40
53748;DHT22;39655;53.210;5.768;2023-03-31T12:32:45;12.90;91.10
53748;DHT22;39655;53.210;5.768;2023-03-31T12:45:35;12.80;91.30
53748;DHT22;39655;53.210;5.768;2023-03-31T12:48:50;12.90;90.90
53748;DHT22;39655;53.210;5.768;2023-03-31T12:57:12;13.20;90.30
53748;DHT22;39655;53.210;5.768;2023-03-31T12:59:43;13.10;90.40
53748;DHT22;39655;53.210;5.768;2023-03-31T13:04:37;13.00;90.20
53748;DHT22;39655;53.210;5.768;2023-03-31T13:07:04;12.90;89.70
53748;DHT22;39655;53.210;5.768;2023-03-31T13:09:45;13.00;90.00
53748;DHT22;39655;53.210;5.768;2023-03-31T13:12:17;13.10;88.30
53748;DHT22;39655;53.210;5.768;2023-03-31T13:14:45;13.10;88.50
53748;DHT22;39655;53.210;5.768;2023-03-31T13:17:32;13.20;86.30
53748;DHT22;39655;53.210;5.768;2023-03-31T13:23:18;13.30;86.50
53748;DHT22;39655;53.210;5.768;2023-03-31T13:25:49;13.40;86.50
53748;DHT22;39655;53.210;5.768;2023-03-31T13:30:49;13.60;85.10
53748;DHT22;39655;53.210;5.768;2023-03-31T13:33:19;13.60;85.30
53748;DHT22;39655;53.210;5.768;2023-03-31T13:41:55;13.60;83.70
53748;DHT22;39655;53.210;5.768;2023-03-31T13:50:31;14.00;83.00
53748;DHT22;39655;53.210;5.768;2023-03-31T13:53:19;14.20;82.80
53748;DHT22;39655;53.210;5.768;2023-03-31T13:59:26;14.40;83.20
53748;DHT22;39655;53.210;5.768;2023-03-31T14:07:00;14.10;82.20
53748;DHT22;39655;53.210;5.768;2023-03-31T14:09:34;14.00;82.00
53748;DHT22;39655;53.210;5.768;2023-03-31T14:12:17;14.00;82.90
53748;DHT22;39655;53.210;5.768;2023-03-31T14:14:43;14.00;83.00
53748;DHT22;39655;53.210;5.768;2023-03-31T14:17:10;14.00;83.10
53748;DHT22;39655;53.210;5.768;2023-03-31T14:20:08;14.10;83.00
53748;DHT22;39655;53.210;5.768;2023-03-31T14:25:48;14.20;82.10
53748;DHT22;39655;53.210;5.768;2023-03-31T14:31:34;13.90;81.70
53748;DHT22;39655;53.210;5.768;2023-03-31T14:34:09;13.90;81.40
53748;DHT22;39655;53.210;5.768;2023-03-31T14:36:47;13.70;82.00
53748;DHT22;39655;53.210;5.768;2023-03-31T14:39:21;13.60;82.50
53748;DHT22;39655;53.210;5.768;2023-03-31T14:41:51;13.40;82.90
53748;DHT22;39655;53.210;5.768;2023-03-31T14:44:18;13.30;83.60
53748;DHT22;39655;53.210;5.768;2023-03-31T14:46:45;13.30;84.00
53748;DHT22;39655;53.210;5.768;2023-03-31T14:49:24;13.30;83.40
53748;DHT22;39655;53.210;5.768;2023-03-31T14:51:52;13.30;83.70
53748;DHT22;39655;53.210;5.768;2023-03-31T14:54:19;13.30;84.10
53748;DHT22;39655;53.210;5.768;2023-03-31T14:56:48;13.40;83.80
53748;DHT22;39655;53.210;5.768;2023-03-31T14:59:21;13.40;84.00
53748;DHT22;39655;53.210;5.768;2023-03-31T15:01:49;13.30;83.70
53748;DHT22;39655;53.210;5.768;2023-03-31T15:04:18;13.40;82.60
53748;DHT22;39655;53.210;5.768;2023-03-31T15:06:46;13.20;83.00
53748;DHT22;39655;53.210;5.768;2023-03-31T15:09:28;13.10;83.50
53748;DHT22;39655;53.210;5.768;2023-03-31T15:12:04;13.10;84.30
53748;DHT22;39655;53.210;5.768;2023-03-31T15:14:34;13.00;84.70
53748;DHT22;39655;53.210;5.768;2023-03-31T15:17:01;12.80;85.40
53748;DHT22;39655;53.210;5.768;2023-03-31T15:19:33;12.80;85.90
53748;DHT22;39655;53.210;5.768;2023-03-31T15:22:11;12.70;86.40
53748;DHT22;39655;53.210;5.768;2023-03-31T15:24:39;12.70;86.60
53748;DHT22;39655;53.210;5.768;2023-03-31T15:27:18;12.70;86.70
53748;DHT22;39655;53.210;5.768;2023-03-31T15:29:50;12.70;87.10
53748;DHT22;39655;53.210;5.768;2023-03-31T15:32:23;12.70;87.50
53748;DHT22;39655;53.210;5.768;2023-03-31T15:34:50;12.70;87.40
53748;DHT22;39655;53.210;5.768;2023-03-31T15:37:23;12.70;87.40
53748;DHT22;39655;53.210;5.768;2023-03-31T15:39:55;12.70;87.80
53748;DHT22;39655;53.210;5.768;2023-03-31T15:42:22;12.70;88.10
53748;DHT22;39655;53.210;5.768;2023-03-31T15:45:01;12.70;88.10
53748;DHT22;39655;53.210;5.768;2023-03-31T15:47:50;12.80;88.20
53748;DHT22;39655;53.210;5.768;2023-03-31T15:50:20;12.70;88.20
53748;DHT22;39655;53.210;5.768;2023-03-31T15:52:53;12.80;88.30
53748;DHT22;39655;53.210;5.768;2023-03-31T15:57:53;12.90;88.30
53748;DHT22;39655;53.210;5.768;2023-03-31T16:03:14;13.20;88.40
53748;DHT22;39655;53.210;5.768;2023-03-31T16:06:00;13.20;88.40
53748;DHT22;39655;53.210;5.768;2023-03-31T16:11:02;13.10;88.00
53748;DHT22;39655;53.210;5.768;2023-03-31T16:13:31;13.10;87.90
53748;DHT22;39655;53.210;5.768;2023-03-31T16:15:58;13.10;88.00
53748;DHT22;39655;53.210;5.768;2023-03-31T16:18:32;13.10;88.10
53748;DHT22;39655;53.210;5.768;2023-03-31T16:21:01;13.20;88.10
53748;DHT22;39655;53.210;5.768;2023-03-31T16:23:31;13.20;88.30
53748;DHT22;39655;53.210;5.768;2023-03-31T16:25:58;13.20;88.10
53748;DHT22;39655;53.210;5.768;2023-03-31T16:28:26;13.20;88.10
53748;DHT22;39655;53.210;5.768;2023-03-31T16:30:53;13.20;88.00
53748;DHT22;39655;53.210;5.768;2023-03-31T16:33:21;13.20;88.00
53748;DHT22;39655;53.210;5.768;2023-03-31T16:35:53;13.20;88.00
53748;DHT22;39655;53.210;5.768;2023-03-31T16:38:28;13.30;87.90
53748;DHT22;39655;53.210;5.768;2023-03-31T16:40:55;13.20;88.00
53748;DHT22;39655;53.210;5.768;2023-03-31T16:43:27;13.20;87.60
53748;DHT22;39655;53.210;5.768;2023-03-31T16:46:00;13.10;87.70
53748;DHT22;39655;53.210;5.768;2023-03-31T16:48:29;13.10;87.60
53748;DHT22;39655;53.210;5.768;2023-03-31T16:50:57;13.10;87.50
53748;DHT22;39655;53.210;5.768;2023-03-31T16:53:29;13.00;87.50
53748;DHT22;39655;53.210;5.768;2023-03-31T16:55:55;12.90;87.60
53748;DHT22;39655;53.210;5.768;2023-03-31T16:58:27;12.90;87.80
53748;DHT22;39655;53.210;5.768;2023-03-31T17:00:54;12.90;88.00
53748;DHT22;39655;53.210;5.768;2023-03-31T17:03:20;12.80;88.10
53748;DHT22;39655;53.210;5.768;2023-03-31T17:05:49;12.80;88.20
53748;DHT22;39655;53.210;5.768;2023-03-31T17:08:18;12.80;88.20
53748;DHT22;39655;53.210;5.768;2023-03-31T17:13:20;12.70;88.40
53748;DHT22;39655;53.210;5.768;2023-03-31T17:15:46;12.70;88.70
53748;DHT22;39655;53.210;5.768;2023-03-31T17:18:13;12.70;88.80
53748;DHT22;39655;53.210;5.768;2023-03-31T17:20:39;12.70;88.50
53748;DHT22;39655;53.210;5.768;2023-03-31T17:23:05;12.60;88.60
53748;DHT22;39655;53.210;5.768;2023-03-31T17:25:31;12.60;88.70
53748;DHT22;39655;53.210;5.768;2023-03-31T17:27:57;12.60;88.80
53748;DHT22;39655;53.210;5.768;2023-03-31T17:30:24;12.60;89.00
53748;DHT22;39655;53.210;5.768;2023-03-31T17:32:50;12.60;89.10
53748;DHT22;39655;53.210;5.768;2023-03-31T17:35:16;12.50;89.30
53748;DHT22;39655;53.210;5.768;2023-03-31T17:37:46;12.50;89.40
53748;DHT22;39655;53.210;5.768;2023-03-31T17:40:15;12.40;89.60
53748;DHT22;39655;53.210;5.768;2023-03-31T17:42:41;12.30;89.80
53748;DHT22;39655;53.210;5.768;2023-03-31T17:45:07;12.20;90.10
53748;DHT22;39655;53.210;5.768;2023-03-31T17:47:33;12.10;90.00
53748;DHT22;39655;53.210;5.768;2023-03-31T17:49:59;12.00;90.20
53748;DHT22;39655;53.210;5.768;2023-03-31T17:52:29;11.90;90.20
53748;DHT22;39655;53.210;5.768;2023-03-31T17:54:55;11.80;90.50
53748;DHT22;39655;53.210;5.768;2023-03-31T17:57:22;11.70;90.80
53748;DHT22;39655;53.210;5.768;2023-03-31T17:59:48;11.80;90.60
53748;DHT22;39655;53.210;5.768;2023-03-31T18:02:14;11.70;90.50
53748;DHT22;39655;53.210;5.768;2023-03-31T18:04:40;11.70;90.40
53748;DHT22;39655;53.210;5.768;2023-03-31T18:07:06;11.60;90.60
53748;DHT22;39655;53.210;5.768;2023-03-31T18:09:33;11.60;90.70
53748;DHT22;39655;53.210;5.768;2023-03-31T18:11:59;11.60;90.70
53748;DHT22;39655;53.210;5.768;2023-03-31T18:14:24;11.50;90.70
53748;DHT22;39655;53.210;5.768;2023-03-31T18:16:51;11.50;90.80
53748;DHT22;39655;53.210;5.768;2023-03-31T18:19:17;11.50;90.80
53748;DHT22;39655;53.210;5.768;2023-03-31T18:21:43;11.50;90.90
53748;DHT22;39655;53.210;5.768;2023-03-31T18:24:08;11.50;91.00
53748;DHT22;39655;53.210;5.768;2023-03-31T18:26:34;11.40;91.10
53748;DHT22;39655;53.210;5.768;2023-03-31T18:29:01;11.40;91.40
53748;DHT22;39655;53.210;5.768;2023-03-31T18:31:26;11.40;91.50
53748;DHT22;39655;53.210;5.768;2023-03-31T18:33:53;11.40;91.60
53748;DHT22;39655;53.210;5.768;2023-03-31T18:36:20;11.40;91.40
53748;DHT22;39655;53.210;5.768;2023-03-31T18:38:47;11.40;91.70